ADDS METAR Data INFO
IDs: Format: Raw Decoded Include TAF

Data at: 1950 UTC 14 Aug 2018

KEKO 141856Z AUTO VRB03KT 10SM CLR 31/04 A3008 RMK AO2 SLP120 T03110039
KEKO 141756Z AUTO VRB03KT 10SM CLR 29/03 A3010 RMK AO2 SLP123 T02940033 10294 20111 58005
KEKO 141656Z AUTO VRB03KT 10SM CLR 27/02 A3011 RMK AO2 SLP131 T02670022
KEKO 141556Z AUTO 05003KT 10SM CLR 22/02 A3011 RMK AO2 SLP135 T02220022
KEKO 141456Z AUTO 05004KT 10SM CLR 18/01 A3011 RMK AO2 SLP137 T01830011 51009
KEKO 141356Z AUTO 06005KT 10SM CLR 16/02 A3011 RMK AO2 SLP134 T01560017
KEKO 141256Z AUTO 00000KT 10SM CLR 12/01 A3009 RMK AO2 SLP133 T01220006
KEKO 141156Z AUTO 09003KT 10SM CLR 15/01 A3008 RMK AO2 SLP122 T01500006 10244 20144 50003
KEKO 141056Z AUTO 08005KT 10SM CLR 16/01 A3008 RMK AO2 SLP121 T01610011
KEKO 140956Z AUTO 00000KT 10SM CLR 15/02 A3007 RMK AO2 SLP122 T01500017
KEKO 140856Z AUTO 00000KT 10SM CLR 15/02 A3007 RMK AO2 SLP120 T01500022 51003
KEKO 140756Z AUTO 00000KT 10SM CLR 19/02 A3007 RMK AO2 SLP116 T01890022 403500156
KEKO 140656Z AUTO 00000KT 10SM CLR 19/02 A3006 RMK AO2 SLP117 T01890022
KEKO 140556Z AUTO 04005KT 10SM CLR 24/01 A3006 RMK AO2 SLP112 T02390011 10344 20222 53013
KEKO 140456Z AUTO 00000KT 10SM CLR 23/01 A3004 RMK AO2 SLP114 T02330006
KEKO 140356Z AUTO VRB03KT 10SM CLR 26/01 A3003 RMK AO2 SLP110 T02610006
KEKO 140256Z AUTO 33006KT 10SM CLR 28/01 A3002 RMK AO2 SLP105 T02830006 53001
KEKO 140156Z AUTO 29008KT 10SM CLR 32/01 A3001 RMK AO2 SLP099 T03220006
KEKO 140056Z AUTO 30011KT 10SM CLR 33/01 A3002 RMK AO2 WSHFT 0032 SLP099 T03330011
KEKO 140052Z AUTO 28011KT 10SM FEW110 33/01 A3002 RMK AO2 WSHFT 0032
KEKO 132356Z AUTO 29011G19KT 10SM CLR 34/01 A3002 RMK AO2 SLP099 T03440011 10350 20278 56017
KEKO 132256Z AUTO 31012G17KT 10SM FEW110 34/01 A3003 RMK AO2 SLP103 T03440011
KEKO 132156Z AUTO 22009KT 10SM CLR 34/03 A3005 RMK AO2 SLP110 T03390028
KEKO 132056Z AUTO 23007KT 10SM CLR 33/02 A3008 RMK AO2 SLP118 T03330022 58018
KEKO 131956Z AUTO VRB05KT 10SM CLR 32/02 A3010 RMK AO2 SLP126 T03220017
KEKO 131856Z AUTO 20006KT 10SM CLR 29/03 A3012 RMK AO2 SLP134 T02940033
KEKO 131756Z AUTO 21005KT 10SM CLR 28/06 A3014 RMK AO2 SLP140 T02830056 10283 20156 58004
KEKO 131656Z AUTO 05003KT 10SM CLR 22/05 A3015 RMK AO2 SLP149 T02220050
KEKO 131556Z AUTO 06005KT 10SM CLR 19/04 A3015 RMK AO2 SLP149 T01890044
KEKO 131456Z AUTO 09005KT 10SM CLR 17/04 A3015 RMK AO2 SLP152 T01720039 53010
KEKO 131356Z AUTO 07003KT 10SM CLR 17/04 A3013 RMK AO2 SLP145 T01670039
KEKO 131256Z AUTO 07005KT 10SM CLR 16/04 A3012 RMK AO2 SLP139 T01610039
KEKO 131156Z AUTO 03004KT 10SM CLR 17/04 A3011 RMK AO2 SLP133 T01670039 10222 20161 53002
KEKO 131056Z AUTO 08005KT 10SM CLR 17/04 A3011 RMK AO2 SLP131 T01670039
KEKO 130956Z AUTO 07004KT 10SM CLR 17/04 A3010 RMK AO2 SLP126 T01670044
KEKO 130856Z AUTO 08006KT 10SM CLR 19/04 A3011 RMK AO2 SLP126 T01890044 50005
KEKO 130756Z AUTO 07006KT 10SM CLR 19/05 A3011 RMK AO2 SLP129 T01940050 403560189